createdAt,value
2023-04-05T00:00:11.123Z,102844.53
2023-04-05T00:02:40.810Z,102848.78
2023-04-05T00:05:09.086Z,102857.28
2023-04-05T00:07:36.801Z,102841.06
2023-04-05T00:10:06.113Z,102835.84
2023-04-05T00:12:33.843Z,102837.50
2023-04-05T00:15:01.540Z,102833.19
2023-04-05T00:17:29.740Z,102839.13
2023-04-05T00:19:58.005Z,102840.81
2023-04-05T00:22:26.859Z,102841.59
2023-04-05T00:24:54.567Z,102844.09
2023-04-05T00:27:23.750Z,102838.06
2023-04-05T00:29:51.428Z,102825.34
2023-04-05T00:32:19.187Z,102826.19
2023-04-05T00:34:46.960Z,102825.34
2023-04-05T00:37:14.652Z,102827.00
2023-04-05T00:39:42.434Z,102826.84
2023-04-05T00:42:10.165Z,102826.72
2023-04-05T00:44:39.281Z,102824.06
2023-04-05T00:47:07.522Z,102824.22
2023-04-05T00:49:35.986Z,102821.69
2023-04-05T00:52:04.036Z,102817.44
2023-04-05T00:54:31.736Z,102824.31
2023-04-05T00:57:00.315Z,102826.84
2023-04-05T00:59:28.979Z,102819.94
2023-04-05T01:02:02.002Z,102824.16
2023-04-05T01:04:31.775Z,102816.47
2023-04-05T01:07:05.630Z,102815.56
2023-04-05T01:09:46.824Z,102813.88
2023-04-05T01:12:18.329Z,102814.69
2023-04-05T01:14:50.177Z,102810.44
2023-04-05T01:17:22.532Z,102811.25
2023-04-05T01:19:53.429Z,102801.00
2023-04-05T01:22:44.797Z,102801.00
2023-04-05T01:25:30.803Z,102790.72
2023-04-05T01:28:14.111Z,102798.34
2023-04-05T01:30:45.488Z,102789.78
2023-04-05T01:33:16.553Z,102782.97
2023-04-05T01:35:49.307Z,102789.81
2023-04-05T01:38:19.280Z,102782.91
2023-04-05T01:40:47.282Z,102787.09
2023-04-05T01:43:15.302Z,102788.00
2023-04-05T01:45:44.763Z,102789.66
2023-04-05T01:48:12.688Z,102787.97
2023-04-05T01:50:40.764Z,102786.22
2023-04-05T01:53:08.728Z,102776.66
2023-04-05T01:55:36.378Z,102783.53
2023-04-05T01:58:04.185Z,102774.94
2023-04-05T02:00:31.825Z,102777.59
2023-04-05T02:03:01.249Z,102781.06
2023-04-05T02:05:29.038Z,102772.47
2023-04-05T02:07:56.746Z,102775.88
2023-04-05T02:10:24.456Z,102782.75
2023-04-05T02:12:52.345Z,102776.00
2023-04-05T02:15:20.084Z,102769.78
2023-04-05T02:17:47.786Z,102768.06
2023-04-05T02:20:18.514Z,102769.84
2023-04-05T02:22:46.254Z,102761.38
2023-04-05T02:25:14.015Z,102761.28
2023-04-05T02:27:42.061Z,102759.56
2023-04-05T02:30:10.573Z,102763.00
2023-04-05T02:32:38.332Z,102752.78
2023-04-05T02:35:06.746Z,102756.19
2023-04-05T02:37:36.116Z,102751.91
2023-04-05T02:40:05.414Z,102756.97
2023-04-05T02:42:33.251Z,102754.34
2023-04-05T02:45:01.333Z,102754.25
2023-04-05T02:47:29.082Z,102756.06
2023-04-05T02:49:56.797Z,102761.94
2023-04-05T02:52:24.464Z,102759.22
2023-04-05T02:54:53.575Z,102758.28
2023-04-05T02:57:21.367Z,102759.06
2023-04-05T02:59:49.054Z,102750.47
2023-04-05T03:02:16.766Z,102752.00
2023-04-05T03:04:44.966Z,102748.53
2023-04-05T03:07:14.516Z,102750.91
2023-04-05T03:09:43.123Z,102749.03
2023-04-05T03:12:12.180Z,102744.66
2023-04-05T03:14:40.140Z,102748.84
2023-04-05T03:17:07.774Z,102752.91
2023-04-05T03:19:35.663Z,102746.06
2023-04-05T03:22:03.302Z,102744.25
2023-04-05T03:24:31.255Z,102740.91
2023-04-05T03:27:02.805Z,102742.63
2023-04-05T03:29:31.884Z,102741.94
2023-04-05T03:31:59.931Z,102743.84
2023-04-05T03:34:28.851Z,102744.53
2023-04-05T03:36:56.693Z,102736.75
2023-04-05T03:39:24.424Z,102739.28
2023-04-05T03:41:52.106Z,102744.41
2023-04-05T03:44:19.773Z,102734.91
2023-04-05T03:46:48.960Z,102735.78
2023-04-05T03:49:16.713Z,102737.66
2023-04-05T03:51:44.383Z,102742.78
2023-04-05T03:54:12.089Z,102738.38
2023-04-05T03:56:39.808Z,102741.78
2023-04-05T03:59:07.520Z,102743.53
2023-04-05T04:01:37.073Z,102742.75
2023-04-05T04:04:06.191Z,102741.84
2023-04-05T04:06:33.884Z,102739.38
2023-04-05T04:09:01.593Z,102736.91
2023-04-05T04:11:29.318Z,102740.41
2023-04-05T04:13:57.027Z,102739.47
2023-04-05T04:16:28.869Z,102735.19
2023-04-05T04:18:57.023Z,102746.38
2023-04-05T04:21:26.040Z,102741.22
2023-04-05T04:23:53.862Z,102735.13
2023-04-05T04:26:29.241Z,102745.38
2023-04-05T04:28:57.005Z,102744.66
2023-04-05T04:31:25.142Z,102749.09
2023-04-05T04:33:53.403Z,102749.94
2023-04-05T04:36:35.215Z,102748.19
2023-04-05T04:39:06.799Z,102748.22
2023-04-05T04:41:36.054Z,102745.50
2023-04-05T04:44:04.390Z,102740.28
2023-04-05T04:46:34.846Z,102739.34
2023-04-05T04:49:05.772Z,102743.69
2023-04-05T04:51:33.606Z,102739.25
2023-04-05T04:54:01.708Z,102745.47
2023-04-05T04:56:33.206Z,102748.97
2023-04-05T04:59:00.952Z,102743.00
2023-04-05T05:01:28.725Z,102745.63
2023-04-05T05:03:56.863Z,102739.66
2023-04-05T05:06:24.639Z,102735.50
2023-04-05T05:08:52.326Z,102733.09
2023-04-05T05:11:20.921Z,102728.91
2023-04-05T05:13:52.657Z,102727.19
2023-04-05T05:16:21.864Z,102728.88
2023-04-05T05:18:49.590Z,102732.28
2023-04-05T05:21:17.238Z,102734.16
2023-04-05T05:23:44.848Z,102736.03
2023-04-05T05:26:14.523Z,102741.31
2023-04-05T05:28:42.240Z,102732.84
2023-04-05T05:31:12.246Z,102741.47
2023-04-05T05:33:40.004Z,102741.59
2023-04-05T05:36:08.198Z,102736.59
2023-04-05T05:38:36.198Z,102731.63
2023-04-05T05:41:03.924Z,102736.88
2023-04-05T05:43:31.609Z,102725.94
2023-04-05T05:46:01.684Z,102735.44
2023-04-05T05:48:31.010Z,102733.81
2023-04-05T05:51:01.723Z,102734.78
2023-04-05T05:53:29.353Z,102728.03
2023-04-05T05:55:57.012Z,102726.38
2023-04-05T05:58:24.770Z,102724.72
2023-04-05T06:00:54.168Z,102718.81
2023-04-05T06:03:22.089Z,102730.03
2023-04-05T06:05:54.358Z,102712.19
2023-04-05T06:08:22.057Z,102712.28
2023-04-05T06:10:49.799Z,102709.81
2023-04-05T06:13:17.449Z,102711.63
2023-04-05T06:15:45.224Z,102704.84
2023-04-05T06:18:13.032Z,102710.03
2023-04-05T06:20:43.151Z,102703.28
2023-04-05T06:23:12.276Z,102694.00
2023-04-05T06:25:40.412Z,102700.91
2023-04-05T06:28:08.577Z,102694.13
2023-04-05T06:30:36.635Z,102689.03
2023-04-05T06:33:04.398Z,102694.22
2023-04-05T06:35:32.355Z,102692.56
2023-04-05T06:38:00.205Z,102692.63
2023-04-05T06:40:29.353Z,102690.97
2023-04-05T06:42:56.970Z,102691.00
2023-04-05T06:45:24.655Z,102688.47
2023-04-05T06:47:52.401Z,102685.91
2023-04-05T06:50:23.267Z,102680.84
2023-04-05T06:52:51.003Z,102683.47
2023-04-05T06:55:18.765Z,102679.22
2023-04-05T06:57:47.816Z,102679.25
2023-04-05T07:00:17.396Z,102675.84
2023-04-05T07:02:45.086Z,102677.56
2023-04-05T07:05:12.816Z,102673.31
2023-04-05T07:07:41.012Z,102670.78
2023-04-05T07:10:09.390Z,102669.09
2023-04-05T07:12:37.023Z,102677.66
2023-04-05T07:15:06.814Z,102675.09
2023-04-05T07:17:34.521Z,102679.41
2023-04-05T07:20:02.200Z,102673.41
2023-04-05T07:22:29.870Z,102679.44
2023-04-05T07:24:57.625Z,102675.13
2023-04-05T07:27:25.232Z,102673.44
2023-04-05T07:29:53.052Z,102664.84
2023-04-05T07:32:22.178Z,102664.00
2023-04-05T07:34:49.907Z,102665.75
2023-04-05T07:37:17.589Z,102659.72
2023-04-05T07:39:45.257Z,102664.88
2023-04-05T07:42:12.912Z,102659.72
2023-04-05T07:44:40.705Z,102648.56
2023-04-05T07:47:08.311Z,102647.69
2023-04-05T07:49:37.981Z,102645.97
2023-04-05T07:52:06.281Z,102655.41
2023-04-05T07:54:34.108Z,102659.72
2023-04-05T07:57:02.746Z,102654.56
2023-04-05T07:59:30.380Z,102654.56
2023-04-05T08:02:02.134Z,102657.13
2023-04-05T08:04:41.320Z,102659.69
2023-04-05T08:07:08.999Z,102668.25
2023-04-05T08:09:36.782Z,102666.53
2023-04-05T08:12:04.559Z,102669.09
2023-04-05T08:14:32.161Z,102675.06
2023-04-05T08:16:59.848Z,102668.16
2023-04-05T08:19:27.572Z,102667.28
2023-04-05T08:21:56.746Z,102668.16
2023-04-05T08:24:24.563Z,102666.38
2023-04-05T08:26:52.330Z,102663.78
2023-04-05T08:29:19.946Z,102654.31
2023-04-05T08:31:47.865Z,102649.13
2023-04-05T08:34:15.662Z,102648.22
2023-04-05T08:36:43.489Z,102630.94
2023-04-05T08:39:12.895Z,102636.94
2023-04-05T08:41:42.449Z,102621.31
2023-04-05T08:44:10.991Z,102604.88
2023-04-05T08:46:38.918Z,102607.41
2023-04-05T08:49:07.355Z,102618.56
2023-04-05T08:51:35.389Z,102620.25
2023-04-05T08:54:04.914Z,102619.34
2023-04-05T08:56:34.881Z,102621.03
2023-04-05T08:59:03.933Z,102625.28
2023-04-05T09:01:32.174Z,102621.81
2023-04-05T09:04:01.448Z,102620.00
2023-04-05T09:06:29.656Z,102616.50
2023-04-05T09:08:58.620Z,102612.09
2023-04-05T09:11:26.357Z,102616.38
2023-04-05T09:13:55.569Z,102624.03
2023-04-05T09:16:24.007Z,102622.22
2023-04-05T09:18:51.644Z,102613.44
2023-04-05T09:21:20.570Z,102622.81
2023-04-05T09:23:55.843Z,102611.50
2023-04-05T09:26:24.436Z,102613.19
2023-04-05T09:28:52.478Z,102626.09
2023-04-05T09:31:34.532Z,102615.72
2023-04-05T09:34:03.930Z,102604.50
2023-04-05T09:36:32.966Z,102599.22
2023-04-05T09:39:06.728Z,102598.34
2023-04-05T09:41:34.896Z,102589.75
2023-04-05T09:44:02.797Z,102588.91
2023-04-05T09:46:32.395Z,102601.06
2023-04-05T09:49:03.858Z,102597.44
2023-04-05T09:51:35.415Z,102598.19
2023-04-05T09:54:04.325Z,102600.63
2023-04-05T09:56:32.880Z,102595.41
2023-04-05T09:59:01.586Z,102590.25
2023-04-05T10:01:29.991Z,102585.94
2023-04-05T10:03:58.539Z,102590.31
2023-04-05T10:06:38.544Z,102607.56
2023-04-05T10:09:06.773Z,102595.50
2023-04-05T10:11:35.618Z,102591.22
2023-04-05T10:14:05.051Z,102597.34
2023-04-05T10:16:35.175Z,102594.63
2023-04-05T10:19:05.976Z,102585.94
2023-04-05T10:21:35.715Z,102603.97
2023-04-05T10:24:08.022Z,102586.69
2023-04-05T10:26:38.337Z,102579.56
2023-04-05T10:29:10.238Z,102582.09
2023-04-05T10:31:42.301Z,102578.66
2023-04-05T10:34:14.379Z,102577.78
2023-04-05T10:36:52.055Z,102571.75
2023-04-05T10:39:26.231Z,102576.06
2023-04-05T10:41:54.866Z,102576.13
2023-04-05T10:44:26.166Z,102588.25
2023-04-05T10:46:55.238Z,102587.41
2023-04-05T10:49:24.248Z,102591.78
2023-04-05T10:51:53.409Z,102601.28
2023-04-05T10:54:21.399Z,102602.25
2023-04-05T10:56:49.430Z,102603.22
2023-04-05T10:59:17.316Z,102596.16
2023-04-05T11:01:46.696Z,102605.63
2023-04-05T11:04:15.575Z,102594.34
2023-04-05T11:06:47.885Z,102599.59
2023-04-05T11:09:17.343Z,102610.13
2023-04-05T11:11:46.302Z,102599.84
2023-04-05T11:14:21.491Z,102600.72
2023-04-05T11:16:50.010Z,102588.59
2023-04-05T11:19:17.939Z,102590.31
2023-04-05T11:21:45.997Z,102597.31
2023-04-05T11:24:15.641Z,102588.63
2023-04-05T11:26:57.705Z,102588.50
2023-04-05T11:29:43.946Z,102592.66
2023-04-05T11:32:13.880Z,102590.09
2023-04-05T11:34:43.211Z,102600.53
2023-04-05T11:37:11.076Z,102591.88
2023-04-05T11:39:39.294Z,102594.50
2023-04-05T11:42:12.244Z,102598.81
2023-04-05T11:44:44.227Z,102606.56
2023-04-05T11:47:12.183Z,102606.78
2023-04-05T11:49:40.232Z,102615.63
2023-04-05T11:52:11.973Z,102614.91
2023-04-05T11:54:39.903Z,102605.56
2023-04-05T11:57:12.758Z,102605.69
2023-04-05T11:59:40.485Z,102603.16
2023-04-05T12:02:09.271Z,102604.94
2023-04-05T12:04:37.332Z,102608.41
2023-04-05T12:07:22.977Z,102620.66
2023-04-05T12:10:09.594Z,102618.97
2023-04-05T12:12:39.586Z,102616.56
2023-04-05T12:15:09.557Z,102613.09
2023-04-05T12:17:44.923Z,102613.19
2023-04-05T12:20:13.246Z,102614.94
2023-04-05T12:22:42.386Z,102614.91
2023-04-05T12:25:10.551Z,102612.41
2023-04-05T12:27:42.004Z,102614.13
2023-04-05T12:30:17.819Z,102621.97
2023-04-05T12:32:46.734Z,102612.56
2023-04-05T12:35:15.114Z,102617.72
2023-04-05T12:37:42.855Z,102612.63
2023-04-05T12:40:11.315Z,102612.66
2023-04-05T12:42:41.090Z,102609.22
2023-04-05T12:45:12.626Z,102614.44
2023-04-05T12:47:50.666Z,102620.47
2023-04-05T12:50:19.369Z,102615.31
2023-04-05T12:52:53.725Z,102624.81
2023-04-05T12:55:22.214Z,102617.06
2023-04-05T12:57:59.611Z,102619.69
2023-04-05T13:00:28.452Z,102614.53
2023-04-05T13:02:57.167Z,102620.56
2023-04-05T13:05:26.029Z,102617.13
2023-04-05T13:07:53.743Z,102622.34
2023-04-05T13:10:21.875Z,102619.72
2023-04-05T13:12:49.487Z,102624.06
2023-04-05T13:15:18.882Z,102628.38
2023-04-05T13:17:49.935Z,102620.63
2023-04-05T13:20:18.650Z,102624.91
2023-04-05T13:22:46.420Z,102618.03
2023-04-05T13:25:14.426Z,102618.88
2023-04-05T13:27:42.218Z,102610.28
2023-04-05T13:30:10.312Z,102606.81
2023-04-05T13:32:39.631Z,102601.66
2023-04-05T13:35:07.833Z,102598.25
2023-04-05T13:37:35.894Z,102591.34
2023-04-05T13:40:03.524Z,102588.78
2023-04-05T13:42:31.142Z,102587.97
2023-04-05T13:44:58.777Z,102600.84
2023-04-05T13:47:26.483Z,102597.41
2023-04-05T13:49:55.587Z,102594.81
2023-04-05T13:52:23.210Z,102584.50
2023-04-05T13:55:03.273Z,102596.53
2023-04-05T13:57:31.874Z,102587.09
2023-04-05T13:59:59.925Z,102594.84
2023-04-05T14:02:28.056Z,102584.50
2023-04-05T14:04:57.314Z,102588.03
2023-04-05T14:07:25.349Z,102588.06
2023-04-05T14:09:53.008Z,102584.59
2023-04-05T14:12:20.778Z,102585.47
2023-04-05T14:14:48.504Z,102581.16
2023-04-05T14:17:16.247Z,102582.03
2023-04-05T14:19:44.069Z,102582.91
2023-04-05T14:22:13.235Z,102581.16
2023-04-05T14:24:40.951Z,102583.75
2023-04-05T14:27:08.950Z,102584.59
2023-04-05T14:29:36.767Z,102588.06
2023-04-05T14:32:04.730Z,102579.44
2023-04-05T14:34:33.819Z,102582.00
2023-04-05T14:37:04.133Z,102588.91
2023-04-05T14:39:33.392Z,102587.22
2023-04-05T14:42:01.337Z,102582.91
2023-04-05T14:44:29.112Z,102586.34
2023-04-05T14:46:57.012Z,102580.38
2023-04-05T14:49:24.751Z,102580.41
2023-04-05T14:51:52.582Z,102583.78
2023-04-05T14:54:20.411Z,102594.16
2023-04-05T14:56:49.499Z,102597.59
2023-04-05T14:59:17.371Z,102583.81
2023-04-05T15:01:46.998Z,102588.13
2023-04-05T15:04:14.798Z,102588.97
2023-04-05T15:06:42.712Z,102601.06
2023-04-05T15:09:10.599Z,102589.88
2023-04-05T15:11:39.350Z,102590.75
2023-04-05T15:14:15.433Z,102589.03
2023-04-05T15:16:49.099Z,102586.41
2023-04-05T15:19:17.593Z,102600.16
2023-04-05T15:21:45.927Z,102599.31
2023-04-05T15:24:13.764Z,102590.72
2023-04-05T15:26:41.891Z,102588.97
2023-04-05T15:29:11.114Z,102594.13
2023-04-05T15:31:39.547Z,102588.97
2023-04-05T15:34:08.488Z,102586.38
2023-04-05T15:36:36.895Z,102587.25
2023-04-05T15:39:05.422Z,102592.44
2023-04-05T15:41:34.469Z,102574.38
2023-04-05T15:44:03.611Z,102587.28
2023-04-05T15:46:33.218Z,102595.03
2023-04-05T15:49:01.285Z,102593.34
2023-04-05T15:51:29.356Z,102591.63
2023-04-05T15:53:57.140Z,102586.47
2023-04-05T15:56:24.844Z,102595.03
2023-04-05T15:58:52.734Z,102599.38
2023-04-05T16:01:20.572Z,102599.38
2023-04-05T16:03:52.594Z,102597.63
2023-04-05T16:06:22.087Z,102607.13
2023-04-05T16:08:49.886Z,102604.53
2023-04-05T16:11:17.572Z,102611.41
2023-04-05T16:13:45.403Z,102607.13
2023-04-05T16:16:20.430Z,102595.94
2023-04-05T16:18:57.186Z,102605.38
2023-04-05T16:21:24.896Z,102605.38
2023-04-05T16:23:52.716Z,102609.69
2023-04-05T16:26:20.415Z,102611.41
2023-04-05T16:28:48.198Z,102617.44
2023-04-05T16:31:15.948Z,102611.44
2023-04-05T16:33:43.769Z,102612.28
2023-04-05T16:36:12.993Z,102613.13
2023-04-05T16:38:41.734Z,102614.88
2023-04-05T16:41:09.472Z,102616.56
2023-04-05T16:43:37.256Z,102618.28
2023-04-05T16:46:05.046Z,102620.84
2023-04-05T16:48:32.911Z,102616.56
2023-04-05T16:51:00.872Z,102611.41
2023-04-05T16:53:30.832Z,102611.41
2023-04-05T16:55:58.675Z,102616.56
2023-04-05T16:58:26.417Z,102622.59
2023-04-05T17:00:58.706Z,102618.28
2023-04-05T17:03:27.400Z,102620.88
2023-04-05T17:05:55.700Z,102614.88
2023-04-05T17:08:23.469Z,102617.44
2023-04-05T17:10:52.789Z,102620.88
2023-04-05T17:13:20.605Z,102614.88
2023-04-05T17:15:49.311Z,102617.44
2023-04-05T17:18:17.089Z,102620.03
2023-04-05T17:20:44.860Z,102622.59
2023-04-05T17:23:12.598Z,102618.28
2023-04-05T17:25:40.383Z,102624.31
2023-04-05T17:28:09.771Z,102637.22
2023-04-05T17:30:37.795Z,102636.34
2023-04-05T17:33:05.670Z,102632.94
2023-04-05T17:35:33.556Z,102629.47
2023-04-05T17:38:03.395Z,102626.03
2023-04-05T17:40:31.940Z,102637.22
2023-04-05T17:42:59.759Z,102631.19
2023-04-05T17:45:28.969Z,102634.66
2023-04-05T17:47:56.891Z,102636.34
2023-04-05T17:50:25.012Z,102638.94
2023-04-05T17:52:52.894Z,102637.22
2023-04-05T17:55:20.606Z,102643.28
2023-04-05T17:57:48.320Z,102642.41
2023-04-05T18:00:16.584Z,102647.53
2023-04-05T18:02:46.051Z,102644.06
2023-04-05T18:05:13.878Z,102650.09
2023-04-05T18:07:42.543Z,102651.84
2023-04-05T18:10:10.750Z,102648.41
2023-04-05T18:12:38.447Z,102652.69
2023-04-05T18:15:06.540Z,102653.56
2023-04-05T18:17:34.361Z,102645.81
2023-04-05T18:20:03.663Z,102652.69
2023-04-05T18:22:32.469Z,102657.84
2023-04-05T18:25:00.272Z,102647.50
2023-04-05T18:27:28.926Z,102657.84
2023-04-05T18:29:56.720Z,102657.84
2023-04-05T18:32:24.553Z,102655.25
2023-04-05T18:34:52.447Z,102656.13
2023-04-05T18:37:21.620Z,102661.28
2023-04-05T18:39:49.357Z,102663.84
2023-04-05T18:42:17.417Z,102664.69
2023-04-05T18:44:45.581Z,102672.44
2023-04-05T18:47:13.399Z,102671.59
2023-04-05T18:49:41.303Z,102667.28
2023-04-05T18:52:10.235Z,102671.59
2023-04-05T18:54:39.989Z,102668.16
2023-04-05T18:57:08.284Z,102674.19
2023-04-05T18:59:36.050Z,102679.34
2023-04-05T19:02:05.140Z,102681.03
2023-04-05T19:04:33.001Z,102679.34
2023-04-05T19:07:00.726Z,102679.34
2023-04-05T19:09:28.587Z,102679.31
2023-04-05T19:11:57.748Z,102679.31
2023-04-05T19:14:25.633Z,102687.06
2023-04-05T19:16:53.427Z,102682.75
2023-04-05T19:19:21.221Z,102687.06
2023-04-05T19:21:48.984Z,102691.34
2023-04-05T19:24:16.826Z,102694.81
2023-04-05T19:26:45.358Z,102692.25
2023-04-05T19:29:14.425Z,102699.13
2023-04-05T19:31:42.185Z,102694.00
2023-04-05T19:34:10.057Z,102698.28
2023-04-05T19:36:38.575Z,102700.88
2023-04-05T19:39:07.023Z,102695.75
2023-04-05T19:41:35.055Z,102699.19
2023-04-05T19:44:03.153Z,102700.06
2023-04-05T19:46:33.701Z,102700.91
2023-04-05T19:49:06.782Z,102701.78
2023-04-05T19:51:35.835Z,102709.50
2023-04-05T19:54:08.929Z,102706.06
2023-04-05T19:56:37.514Z,102704.34
2023-04-05T19:59:15.788Z,102697.50
2023-04-05T20:01:47.248Z,102699.19
2023-04-05T20:04:17.100Z,102693.22
2023-04-05T20:06:48.924Z,102698.38
2023-04-05T20:09:18.295Z,102706.94
2023-04-05T20:11:50.318Z,102703.53
2023-04-05T20:14:18.127Z,102706.09
2023-04-05T20:16:49.632Z,102702.66
2023-04-05T20:19:17.528Z,102713.84
2023-04-05T20:21:45.671Z,102714.66
2023-04-05T20:24:17.369Z,102712.97
2023-04-05T20:26:46.033Z,102713.81
2023-04-05T20:29:16.916Z,102719.84
2023-04-05T20:31:44.990Z,102715.50
2023-04-05T20:34:15.211Z,102717.25
2023-04-05T20:36:46.118Z,102719.81
2023-04-05T20:39:13.874Z,102714.63
2023-04-05T20:41:41.569Z,102719.78
2023-04-05T20:44:09.267Z,102720.63
2023-04-05T20:46:37.088Z,102722.34
2023-04-05T20:49:04.935Z,102721.47
2023-04-05T20:51:34.186Z,102719.78
2023-04-05T20:54:02.298Z,102723.19
2023-04-05T20:56:30.406Z,102722.31
2023-04-05T20:58:58.162Z,102723.16
2023-04-05T21:01:27.147Z,102720.56
2023-04-05T21:03:55.005Z,102723.94
2023-04-05T21:06:22.766Z,102722.19
2023-04-05T21:08:51.950Z,102727.31
2023-04-05T21:11:19.648Z,102724.72
2023-04-05T21:13:47.405Z,102730.69
2023-04-05T21:16:15.361Z,102731.50
2023-04-05T21:18:43.237Z,102731.47
2023-04-05T21:21:10.935Z,102734.00
2023-04-05T21:23:38.644Z,102739.13
2023-04-05T21:26:07.820Z,102737.41
2023-04-05T21:28:35.493Z,102737.44
2023-04-05T21:31:03.227Z,102733.19
2023-04-05T21:33:31.116Z,102733.22
2023-04-05T21:35:58.979Z,102738.44
2023-04-05T21:38:27.210Z,102734.16
2023-04-05T21:40:55.513Z,102737.56
2023-04-05T21:43:24.818Z,102735.00
2023-04-05T21:45:52.990Z,102735.03
2023-04-05T21:48:20.844Z,102735.06
2023-04-05T21:50:48.662Z,102735.09
2023-04-05T21:53:16.411Z,102739.41
2023-04-05T21:55:44.183Z,102739.44
2023-04-05T21:58:12.002Z,102742.88
2023-04-05T22:00:41.214Z,102743.75
2023-04-05T22:03:09.007Z,102742.88
2023-04-05T22:05:38.874Z,102748.91
2023-04-05T22:08:08.188Z,102735.19
2023-04-05T22:10:37.583Z,102743.78
2023-04-05T22:13:05.435Z,102747.19
2023-04-05T22:15:33.144Z,102749.78
2023-04-05T22:18:02.286Z,102749.78
2023-04-05T22:20:30.131Z,102748.06
2023-04-05T22:22:57.893Z,102748.94
2023-04-05T22:25:26.421Z,102749.78
2023-04-05T22:27:59.583Z,102757.53
2023-04-05T22:30:28.261Z,102751.50
2023-04-05T22:32:56.334Z,102752.38
2023-04-05T22:35:25.683Z,102760.97
2023-04-05T22:37:53.507Z,102753.22
2023-04-05T22:40:27.031Z,102760.06
2023-04-05T22:42:54.891Z,102761.78
2023-04-05T22:45:22.721Z,102764.38
2023-04-05T22:47:50.541Z,102767.78
2023-04-05T22:50:18.466Z,102765.22
2023-04-05T22:52:47.641Z,102760.91
2023-04-05T22:55:15.650Z,102769.50
2023-04-05T22:57:43.407Z,102760.06
2023-04-05T23:00:12.286Z,102760.94
2023-04-05T23:02:40.066Z,102761.81
2023-04-05T23:05:08.201Z,102765.22
2023-04-05T23:07:36.002Z,102771.22
2023-04-05T23:10:05.410Z,102763.50
2023-04-05T23:12:33.225Z,102769.53
2023-04-05T23:15:01.000Z,102772.94
2023-04-05T23:17:28.856Z,102769.53
2023-04-05T23:19:56.641Z,102770.31
2023-04-05T23:22:24.398Z,102769.47
2023-04-05T23:24:52.139Z,102764.34
2023-04-05T23:27:22.881Z,102775.47
2023-04-05T23:29:50.611Z,102772.03
2023-04-05T23:32:18.307Z,102771.19
2023-04-05T23:34:46.285Z,102778.88
2023-04-05T23:37:14.139Z,102767.69
2023-04-05T23:39:42.131Z,102770.28
2023-04-05T23:42:10.166Z,102771.16
2023-04-05T23:44:39.377Z,102771.13
2023-04-05T23:47:07.042Z,102771.13
2023-04-05T23:49:34.777Z,102778.00
2023-04-05T23:52:02.477Z,102775.41
2023-04-05T23:54:30.551Z,102766.88
2023-04-05T23:56:58.514Z,102772.84
2023-04-05T23:59:26.594Z,102773.72
